sensor_id;sensor_type;location;lat;lon;timestamp;P1;durP1;ratioP1;P2;durP2;ratioP2
8183;SDS011;4133;48.752;9.088;2023-02-08T00:01:23;10.70;;;6.20;;
8183;SDS011;4133;48.752;9.088;2023-02-08T00:03:49;9.83;;;6.20;;
8183;SDS011;4133;48.752;9.088;2023-02-08T00:06:15;12.27;;;6.67;;
8183;SDS011;4133;48.752;9.088;2023-02-08T00:08:42;10.23;;;6.07;;
8183;SDS011;4133;48.752;9.088;2023-02-08T00:11:08;9.27;;;6.20;;
8183;SDS011;4133;48.752;9.088;2023-02-08T00:13:38;9.90;;;5.50;;
8183;SDS011;4133;48.752;9.088;2023-02-08T00:16:04;9.33;;;5.70;;
8183;SDS011;4133;48.752;9.088;2023-02-08T00:18:31;11.50;;;6.70;;
8183;SDS011;4133;48.752;9.088;2023-02-08T00:20:57;10.40;;;6.10;;
8183;SDS011;4133;48.752;9.088;2023-02-08T00:23:23;9.80;;;5.93;;
8183;SDS011;4133;48.752;9.088;2023-02-08T00:25:49;11.20;;;6.10;;
8183;SDS011;4133;48.752;9.088;2023-02-08T00:28:16;9.80;;;6.03;;
8183;SDS011;4133;48.752;9.088;2023-02-08T00:30:42;11.73;;;5.67;;
8183;SDS011;4133;48.752;9.088;2023-02-08T00:33:08;9.70;;;5.60;;
8183;SDS011;4133;48.752;9.088;2023-02-08T00:35:34;10.30;;;6.00;;
8183;SDS011;4133;48.752;9.088;2023-02-08T00:38:01;8.53;;;5.37;;
8183;SDS011;4133;48.752;9.088;2023-02-08T00:40:27;11.20;;;5.70;;
8183;SDS011;4133;48.752;9.088;2023-02-08T00:42:53;6.33;;;4.87;;
8183;SDS011;4133;48.752;9.088;2023-02-08T00:45:20;6.07;;;4.17;;
8183;SDS011;4133;48.752;9.088;2023-02-08T00:48:02;7.43;;;3.97;;
8183;SDS011;4133;48.752;9.088;2023-02-08T00:50:28;7.17;;;4.10;;
8183;SDS011;4133;48.752;9.088;2023-02-08T00:52:54;6.00;;;4.33;;
8183;SDS011;4133;48.752;9.088;2023-02-08T00:55:20;6.27;;;4.27;;
8183;SDS011;4133;48.752;9.088;2023-02-08T00:57:46;7.63;;;4.17;;
8183;SDS011;4133;48.752;9.088;2023-02-08T01:00:12;7.23;;;4.40;;
8183;SDS011;4133;48.752;9.088;2023-02-08T01:02:38;7.50;;;4.80;;
8183;SDS011;4133;48.752;9.088;2023-02-08T01:05:04;7.37;;;4.57;;
8183;SDS011;4133;48.752;9.088;2023-02-08T01:07:30;7.93;;;4.43;;
8183;SDS011;4133;48.752;9.088;2023-02-08T01:09:56;8.43;;;4.60;;
8183;SDS011;4133;48.752;9.088;2023-02-08T01:12:24;7.80;;;4.77;;
8183;SDS011;4133;48.752;9.088;2023-02-08T01:14:50;11.07;;;4.23;;
8183;SDS011;4133;48.752;9.088;2023-02-08T01:17:15;9.53;;;4.80;;
8183;SDS011;4133;48.752;9.088;2023-02-08T01:19:41;7.57;;;4.50;;
8183;SDS011;4133;48.752;9.088;2023-02-08T01:22:07;6.67;;;4.27;;
8183;SDS011;4133;48.752;9.088;2023-02-08T01:24:34;7.53;;;4.40;;
8183;SDS011;4133;48.752;9.088;2023-02-08T01:27:00;8.40;;;5.17;;
8183;SDS011;4133;48.752;9.088;2023-02-08T01:29:25;7.30;;;4.90;;
8183;SDS011;4133;48.752;9.088;2023-02-08T01:31:51;9.17;;;4.80;;
8183;SDS011;4133;48.752;9.088;2023-02-08T01:34:17;7.17;;;4.67;;
8183;SDS011;4133;48.752;9.088;2023-02-08T01:36:43;7.20;;;4.53;;
8183;SDS011;4133;48.752;9.088;2023-02-08T01:39:10;8.90;;;4.97;;
8183;SDS011;4133;48.752;9.088;2023-02-08T01:41:37;7.93;;;4.87;;
8183;SDS011;4133;48.752;9.088;2023-02-08T01:46:30;9.17;;;5.20;;
8183;SDS011;4133;48.752;9.088;2023-02-08T01:48:58;7.93;;;5.00;;
8183;SDS011;4133;48.752;9.088;2023-02-08T01:51:26;9.00;;;5.13;;
8183;SDS011;4133;48.752;9.088;2023-02-08T01:53:54;8.87;;;5.13;;
8183;SDS011;4133;48.752;9.088;2023-02-08T01:56:22;6.97;;;4.87;;
8183;SDS011;4133;48.752;9.088;2023-02-08T01:58:50;10.77;;;4.90;;
8183;SDS011;4133;48.752;9.088;2023-02-08T02:01:17;6.77;;;4.43;;
8183;SDS011;4133;48.752;9.088;2023-02-08T02:03:43;8.73;;;5.03;;
8183;SDS011;4133;48.752;9.088;2023-02-08T02:06:10;8.10;;;4.77;;
8183;SDS011;4133;48.752;9.088;2023-02-08T02:08:38;9.00;;;5.40;;
8183;SDS011;4133;48.752;9.088;2023-02-08T02:11:06;8.40;;;5.10;;
8183;SDS011;4133;48.752;9.088;2023-02-08T02:13:32;12.63;;;5.83;;
8183;SDS011;4133;48.752;9.088;2023-02-08T02:15:58;10.60;;;5.20;;
8183;SDS011;4133;48.752;9.088;2023-02-08T02:18:27;8.67;;;5.13;;
8183;SDS011;4133;48.752;9.088;2023-02-08T02:23:29;8.67;;;5.07;;
8183;SDS011;4133;48.752;9.088;2023-02-08T02:36:34;8.33;;;5.03;;
8183;SDS011;4133;48.752;9.088;2023-02-08T02:39:19;10.13;;;5.37;;
8183;SDS011;4133;48.752;9.088;2023-02-08T02:44:38;11.00;;;5.50;;
8183;SDS011;4133;48.752;9.088;2023-02-08T02:50:23;8.83;;;5.07;;
8183;SDS011;4133;48.752;9.088;2023-02-08T02:53:17;7.30;;;5.00;;
8183;SDS011;4133;48.752;9.088;2023-02-08T02:55:45;8.83;;;5.60;;
8183;SDS011;4133;48.752;9.088;2023-02-08T02:58:13;9.33;;;5.63;;
8183;SDS011;4133;48.752;9.088;2023-02-08T03:00:40;12.67;;;6.27;;
8183;SDS011;4133;48.752;9.088;2023-02-08T03:03:12;10.53;;;5.77;;
8183;SDS011;4133;48.752;9.088;2023-02-08T03:05:42;9.33;;;5.73;;
8183;SDS011;4133;48.752;9.088;2023-02-08T03:08:16;8.83;;;5.60;;
8183;SDS011;4133;48.752;9.088;2023-02-08T03:13:21;8.20;;;5.23;;
8183;SDS011;4133;48.752;9.088;2023-02-08T03:23:34;7.83;;;5.20;;
8183;SDS011;4133;48.752;9.088;2023-02-08T03:34:05;10.47;;;5.50;;
8183;SDS011;4133;48.752;9.088;2023-02-08T03:39:00;9.50;;;5.67;;
8183;SDS011;4133;48.752;9.088;2023-02-08T03:41:29;8.53;;;5.30;;
8183;SDS011;4133;48.752;9.088;2023-02-08T03:43:57;9.80;;;5.10;;
8183;SDS011;4133;48.752;9.088;2023-02-08T03:55:56;8.17;;;4.80;;
8183;SDS011;4133;48.752;9.088;2023-02-08T03:58:33;9.47;;;5.23;;
8183;SDS011;4133;48.752;9.088;2023-02-08T04:01:22;8.87;;;5.07;;
8183;SDS011;4133;48.752;9.088;2023-02-08T04:03:50;10.23;;;4.97;;
8183;SDS011;4133;48.752;9.088;2023-02-08T04:06:18;11.37;;;5.53;;
8183;SDS011;4133;48.752;9.088;2023-02-08T04:08:44;7.23;;;4.90;;
8183;SDS011;4133;48.752;9.088;2023-02-08T04:11:10;9.40;;;5.07;;
8183;SDS011;4133;48.752;9.088;2023-02-08T04:13:36;8.30;;;5.30;;
8183;SDS011;4133;48.752;9.088;2023-02-08T04:16:02;9.57;;;4.93;;
8183;SDS011;4133;48.752;9.088;2023-02-08T04:18:28;7.50;;;4.63;;
8183;SDS011;4133;48.752;9.088;2023-02-08T04:20:54;11.00;;;5.70;;
8183;SDS011;4133;48.752;9.088;2023-02-08T04:23:21;9.47;;;5.40;;
8183;SDS011;4133;48.752;9.088;2023-02-08T04:25:47;10.37;;;5.30;;
8183;SDS011;4133;48.752;9.088;2023-02-08T04:28:13;8.97;;;5.17;;
8183;SDS011;4133;48.752;9.088;2023-02-08T04:30:39;8.43;;;5.23;;
8183;SDS011;4133;48.752;9.088;2023-02-08T04:33:05;7.27;;;4.90;;
8183;SDS011;4133;48.752;9.088;2023-02-08T04:35:31;10.00;;;5.10;;
8183;SDS011;4133;48.752;9.088;2023-02-08T04:37:57;8.63;;;5.00;;
8183;SDS011;4133;48.752;9.088;2023-02-08T04:40:23;6.87;;;4.70;;
8183;SDS011;4133;48.752;9.088;2023-02-08T04:42:49;8.20;;;5.03;;
8183;SDS011;4133;48.752;9.088;2023-02-08T04:45:15;7.43;;;5.07;;
8183;SDS011;4133;48.752;9.088;2023-02-08T04:47:46;7.30;;;4.77;;
8183;SDS011;4133;48.752;9.088;2023-02-08T04:50:12;10.10;;;5.00;;
8183;SDS011;4133;48.752;9.088;2023-02-08T04:52:38;7.37;;;4.70;;
8183;SDS011;4133;48.752;9.088;2023-02-08T04:55:04;7.43;;;5.00;;
8183;SDS011;4133;48.752;9.088;2023-02-08T04:57:30;10.37;;;4.90;;
8183;SDS011;4133;48.752;9.088;2023-02-08T04:59:56;9.53;;;4.93;;
8183;SDS011;4133;48.752;9.088;2023-02-08T05:02:22;8.73;;;4.80;;
8183;SDS011;4133;48.752;9.088;2023-02-08T05:04:48;10.00;;;5.50;;
8183;SDS011;4133;48.752;9.088;2023-02-08T05:07:14;6.67;;;4.67;;
8183;SDS011;4133;48.752;9.088;2023-02-08T05:09:40;7.27;;;4.90;;
8183;SDS011;4133;48.752;9.088;2023-02-08T05:12:06;8.53;;;4.97;;
8183;SDS011;4133;48.752;9.088;2023-02-08T05:14:32;8.17;;;5.03;;
8183;SDS011;4133;48.752;9.088;2023-02-08T05:16:58;7.90;;;4.93;;
8183;SDS011;4133;48.752;9.088;2023-02-08T05:19:25;7.80;;;5.20;;
8183;SDS011;4133;48.752;9.088;2023-02-08T05:21:51;8.10;;;5.03;;
8183;SDS011;4133;48.752;9.088;2023-02-08T05:24:17;8.60;;;4.63;;
8183;SDS011;4133;48.752;9.088;2023-02-08T05:26:43;8.57;;;5.27;;
8183;SDS011;4133;48.752;9.088;2023-02-08T05:29:09;8.30;;;5.00;;
8183;SDS011;4133;48.752;9.088;2023-02-08T05:31:35;8.20;;;5.10;;
8183;SDS011;4133;48.752;9.088;2023-02-08T05:34:01;7.23;;;5.13;;
8183;SDS011;4133;48.752;9.088;2023-02-08T05:36:27;7.83;;;4.93;;
8183;SDS011;4133;48.752;9.088;2023-02-08T05:38:53;9.93;;;5.47;;
8183;SDS011;4133;48.752;9.088;2023-02-08T05:41:19;9.00;;;4.83;;
8183;SDS011;4133;48.752;9.088;2023-02-08T05:43:45;7.73;;;4.67;;
8183;SDS011;4133;48.752;9.088;2023-02-08T05:46:11;10.03;;;5.70;;
8183;SDS011;4133;48.752;9.088;2023-02-08T05:51:30;10.43;;;5.03;;
8183;SDS011;4133;48.752;9.088;2023-02-08T05:53:57;7.53;;;5.00;;
8183;SDS011;4133;48.752;9.088;2023-02-08T05:56:23;11.05;;;7.70;;
8183;SDS011;4133;48.752;9.088;2023-02-08T05:58:49;11.23;;;5.87;;
8183;SDS011;4133;48.752;9.088;2023-02-08T06:01:15;10.93;;;5.07;;
8183;SDS011;4133;48.752;9.088;2023-02-08T06:03:41;13.30;;;5.60;;
8183;SDS011;4133;48.752;9.088;2023-02-08T06:06:07;11.87;;;5.23;;
8183;SDS011;4133;48.752;9.088;2023-02-08T06:08:35;8.60;;;5.23;;
8183;SDS011;4133;48.752;9.088;2023-02-08T06:11:02;9.55;;;5.55;;
8183;SDS011;4133;48.752;9.088;2023-02-08T06:13:28;7.97;;;5.13;;
8183;SDS011;4133;48.752;9.088;2023-02-08T06:15:54;8.80;;;5.47;;
8183;SDS011;4133;48.752;9.088;2023-02-08T06:18:20;7.93;;;5.03;;
8183;SDS011;4133;48.752;9.088;2023-02-08T06:20:46;8.17;;;4.93;;
8183;SDS011;4133;48.752;9.088;2023-02-08T06:23:12;7.30;;;5.53;;
8183;SDS011;4133;48.752;9.088;2023-02-08T06:25:38;13.47;;;5.30;;
8183;SDS011;4133;48.752;9.088;2023-02-08T06:28:04;7.53;;;4.70;;
8183;SDS011;4133;48.752;9.088;2023-02-08T06:30:32;7.50;;;4.93;;
8183;SDS011;4133;48.752;9.088;2023-02-08T06:32:58;8.00;;;4.63;;
8183;SDS011;4133;48.752;9.088;2023-02-08T06:35:24;6.07;;;4.53;;
8183;SDS011;4133;48.752;9.088;2023-02-08T06:37:50;8.47;;;5.27;;
8183;SDS011;4133;48.752;9.088;2023-02-08T06:40:16;8.50;;;5.13;;
8183;SDS011;4133;48.752;9.088;2023-02-08T06:42:42;9.37;;;4.73;;
8183;SDS011;4133;48.752;9.088;2023-02-08T06:45:08;8.23;;;5.50;;
8183;SDS011;4133;48.752;9.088;2023-02-08T06:47:51;8.27;;;4.97;;
8183;SDS011;4133;48.752;9.088;2023-02-08T06:50:17;9.43;;;5.53;;
8183;SDS011;4133;48.752;9.088;2023-02-08T06:52:43;9.43;;;5.27;;
8183;SDS011;4133;48.752;9.088;2023-02-08T06:55:09;9.23;;;5.60;;
8183;SDS011;4133;48.752;9.088;2023-02-08T06:57:35;12.20;;;4.47;;
8183;SDS011;4133;48.752;9.088;2023-02-08T07:00:01;8.20;;;5.07;;
8183;SDS011;4133;48.752;9.088;2023-02-08T07:02:27;9.13;;;5.37;;
8183;SDS011;4133;48.752;9.088;2023-02-08T07:04:53;10.50;;;5.20;;
8183;SDS011;4133;48.752;9.088;2023-02-08T07:07:19;7.77;;;5.07;;
8183;SDS011;4133;48.752;9.088;2023-02-08T07:09:45;8.37;;;5.10;;
8183;SDS011;4133;48.752;9.088;2023-02-08T07:12:11;9.07;;;5.60;;
8183;SDS011;4133;48.752;9.088;2023-02-08T07:14:38;10.20;;;5.20;;
8183;SDS011;4133;48.752;9.088;2023-02-08T07:17:05;9.60;;;5.17;;
8183;SDS011;4133;48.752;9.088;2023-02-08T07:19:31;11.23;;;5.40;;
8183;SDS011;4133;48.752;9.088;2023-02-08T07:21:57;10.40;;;5.17;;
8183;SDS011;4133;48.752;9.088;2023-02-08T07:24:33;10.20;;;5.23;;
8183;SDS011;4133;48.752;9.088;2023-02-08T07:27:00;9.00;;;5.23;;
8183;SDS011;4133;48.752;9.088;2023-02-08T07:29:27;12.23;;;5.07;;
8183;SDS011;4133;48.752;9.088;2023-02-08T07:31:53;8.53;;;4.97;;
8183;SDS011;4133;48.752;9.088;2023-02-08T07:34:19;10.53;;;5.43;;
8183;SDS011;4133;48.752;9.088;2023-02-08T07:36:46;11.53;;;5.40;;
8183;SDS011;4133;48.752;9.088;2023-02-08T07:39:13;9.33;;;5.53;;
8183;SDS011;4133;48.752;9.088;2023-02-08T07:41:39;10.17;;;5.90;;
8183;SDS011;4133;48.752;9.088;2023-02-08T07:44:05;9.23;;;5.60;;
8183;SDS011;4133;48.752;9.088;2023-02-08T07:46:42;10.73;;;5.70;;
8183;SDS011;4133;48.752;9.088;2023-02-08T07:49:08;9.43;;;5.13;;
8183;SDS011;4133;48.752;9.088;2023-02-08T07:51:34;10.90;;;5.80;;
8183;SDS011;4133;48.752;9.088;2023-02-08T07:54:00;10.27;;;5.63;;
8183;SDS011;4133;48.752;9.088;2023-02-08T07:56:26;10.77;;;5.77;;
8183;SDS011;4133;48.752;9.088;2023-02-08T07:58:52;9.27;;;5.50;;
8183;SDS011;4133;48.752;9.088;2023-02-08T08:01:18;12.60;;;6.20;;
8183;SDS011;4133;48.752;9.088;2023-02-08T08:03:44;10.23;;;5.63;;
8183;SDS011;4133;48.752;9.088;2023-02-08T08:06:10;13.17;;;6.07;;
8183;SDS011;4133;48.752;9.088;2023-02-08T08:08:36;10.10;;;5.80;;
8183;SDS011;4133;48.752;9.088;2023-02-08T08:11:03;11.47;;;6.27;;
8183;SDS011;4133;48.752;9.088;2023-02-08T08:13:29;9.63;;;6.10;;
8183;SDS011;4133;48.752;9.088;2023-02-08T08:15:55;10.37;;;6.13;;
8183;SDS011;4133;48.752;9.088;2023-02-08T08:18:22;11.73;;;6.93;;
8183;SDS011;4133;48.752;9.088;2023-02-08T08:20:48;11.67;;;6.87;;
8183;SDS011;4133;48.752;9.088;2023-02-08T08:23:14;17.10;;;6.97;;
8183;SDS011;4133;48.752;9.088;2023-02-08T08:25:40;12.80;;;7.37;;
8183;SDS011;4133;48.752;9.088;2023-02-08T08:28:06;11.73;;;6.50;;
8183;SDS011;4133;48.752;9.088;2023-02-08T08:30:32;12.25;;;8.60;;
8183;SDS011;4133;48.752;9.088;2023-02-08T08:32:58;12.60;;;7.03;;
8183;SDS011;4133;48.752;9.088;2023-02-08T08:35:24;11.40;;;6.80;;
8183;SDS011;4133;48.752;9.088;2023-02-08T08:37:50;12.80;;;7.20;;
8183;SDS011;4133;48.752;9.088;2023-02-08T08:40:16;12.43;;;7.27;;
8183;SDS011;4133;48.752;9.088;2023-02-08T08:42:42;12.50;;;6.90;;
8183;SDS011;4133;48.752;9.088;2023-02-08T08:45:09;9.90;;;6.17;;
8183;SDS011;4133;48.752;9.088;2023-02-08T08:47:47;10.40;;;6.50;;
8183;SDS011;4133;48.752;9.088;2023-02-08T08:50:13;10.67;;;6.33;;
8183;SDS011;4133;48.752;9.088;2023-02-08T08:52:39;11.20;;;6.90;;
8183;SDS011;4133;48.752;9.088;2023-02-08T08:55:06;12.03;;;6.80;;
8183;SDS011;4133;48.752;9.088;2023-02-08T08:57:32;12.80;;;6.67;;
8183;SDS011;4133;48.752;9.088;2023-02-08T08:59:58;14.43;;;7.10;;
8183;SDS011;4133;48.752;9.088;2023-02-08T09:02:24;10.83;;;6.43;;
8183;SDS011;4133;48.752;9.088;2023-02-08T09:04:50;9.90;;;6.07;;
8183;SDS011;4133;48.752;9.088;2023-02-08T09:07:16;17.93;;;6.63;;
8183;SDS011;4133;48.752;9.088;2023-02-08T09:09:42;13.00;;;6.60;;
8183;SDS011;4133;48.752;9.088;2023-02-08T09:12:12;11.77;;;6.17;;
8183;SDS011;4133;48.752;9.088;2023-02-08T09:14:41;13.20;;;6.63;;
8183;SDS011;4133;48.752;9.088;2023-02-08T09:17:09;10.07;;;6.07;;
8183;SDS011;4133;48.752;9.088;2023-02-08T09:19:35;10.87;;;6.30;;
8183;SDS011;4133;48.752;9.088;2023-02-08T09:22:01;13.70;;;7.03;;
8183;SDS011;4133;48.752;9.088;2023-02-08T09:24:27;10.57;;;6.77;;
8183;SDS011;4133;48.752;9.088;2023-02-08T09:26:53;12.63;;;6.70;;
8183;SDS011;4133;48.752;9.088;2023-02-08T09:29:19;11.07;;;6.50;;
8183;SDS011;4133;48.752;9.088;2023-02-08T09:31:45;10.83;;;7.03;;
8183;SDS011;4133;48.752;9.088;2023-02-08T09:34:11;12.30;;;6.57;;
8183;SDS011;4133;48.752;9.088;2023-02-08T09:36:38;11.30;;;6.77;;
8183;SDS011;4133;48.752;9.088;2023-02-08T09:39:11;10.83;;;6.77;;
8183;SDS011;4133;48.752;9.088;2023-02-08T09:41:43;10.40;;;6.37;;
8183;SDS011;4133;48.752;9.088;2023-02-08T09:44:47;11.63;;;6.60;;
8183;SDS011;4133;48.752;9.088;2023-02-08T09:50:30;10.30;;;6.30;;
8183;SDS011;4133;48.752;9.088;2023-02-08T09:55:27;11.47;;;6.87;;
8183;SDS011;4133;48.752;9.088;2023-02-08T09:57:54;10.80;;;6.97;;
8183;SDS011;4133;48.752;9.088;2023-02-08T10:00:44;11.00;;;6.93;;
8183;SDS011;4133;48.752;9.088;2023-02-08T10:05:53;12.07;;;6.83;;
8183;SDS011;4133;48.752;9.088;2023-02-08T10:08:19;13.33;;;6.77;;
8183;SDS011;4133;48.752;9.088;2023-02-08T10:10:49;10.40;;;6.60;;
8183;SDS011;4133;48.752;9.088;2023-02-08T10:15:47;9.17;;;6.60;;
8183;SDS011;4133;48.752;9.088;2023-02-08T10:36:01;11.87;;;7.43;;
8183;SDS011;4133;48.752;9.088;2023-02-08T10:38:28;12.23;;;7.37;;
8183;SDS011;4133;48.752;9.088;2023-02-08T10:40:56;11.73;;;7.33;;
8183;SDS011;4133;48.752;9.088;2023-02-08T10:45:51;13.27;;;7.90;;
8183;SDS011;4133;48.752;9.088;2023-02-08T10:51:08;12.80;;;7.70;;
8183;SDS011;4133;48.752;9.088;2023-02-08T10:53:36;13.33;;;7.27;;
8183;SDS011;4133;48.752;9.088;2023-02-08T10:56:02;14.60;;;7.40;;
8183;SDS011;4133;48.752;9.088;2023-02-08T10:58:28;12.23;;;7.47;;
8183;SDS011;4133;48.752;9.088;2023-02-08T11:00:55;12.63;;;7.80;;
8183;SDS011;4133;48.752;9.088;2023-02-08T11:03:23;12.67;;;7.83;;
8183;SDS011;4133;48.752;9.088;2023-02-08T11:05:59;12.73;;;7.80;;
8183;SDS011;4133;48.752;9.088;2023-02-08T11:08:25;12.27;;;8.07;;
8183;SDS011;4133;48.752;9.088;2023-02-08T11:10:59;14.60;;;8.57;;
8183;SDS011;4133;48.752;9.088;2023-02-08T11:13:30;10.80;;;7.47;;
8183;SDS011;4133;48.752;9.088;2023-02-08T11:15:57;12.50;;;8.00;;
8183;SDS011;4133;48.752;9.088;2023-02-08T11:18:29;13.03;;;7.87;;
8183;SDS011;4133;48.752;9.088;2023-02-08T11:20:58;11.43;;;7.70;;
8183;SDS011;4133;48.752;9.088;2023-02-08T11:23:31;12.67;;;8.13;;
8183;SDS011;4133;48.752;9.088;2023-02-08T11:28:39;12.87;;;7.80;;
8183;SDS011;4133;48.752;9.088;2023-02-08T11:31:24;12.60;;;7.80;;
8183;SDS011;4133;48.752;9.088;2023-02-08T11:34:01;16.80;;;8.33;;
8183;SDS011;4133;48.752;9.088;2023-02-08T11:36:27;10.87;;;7.53;;
8183;SDS011;4133;48.752;9.088;2023-02-08T11:38:54;13.27;;;7.70;;
8183;SDS011;4133;48.752;9.088;2023-02-08T11:41:20;10.77;;;7.67;;
8183;SDS011;4133;48.752;9.088;2023-02-08T11:46:25;13.93;;;7.90;;
8183;SDS011;4133;48.752;9.088;2023-02-08T11:48:52;11.57;;;7.03;;
8183;SDS011;4133;48.752;9.088;2023-02-08T11:51:32;12.13;;;7.43;;
8183;SDS011;4133;48.752;9.088;2023-02-08T11:53:59;12.57;;;7.80;;
8183;SDS011;4133;48.752;9.088;2023-02-08T11:56:27;13.10;;;7.37;;
8183;SDS011;4133;48.752;9.088;2023-02-08T11:58:54;9.73;;;7.17;;
8183;SDS011;4133;48.752;9.088;2023-02-08T12:01:21;12.10;;;7.23;;
8183;SDS011;4133;48.752;9.088;2023-02-08T12:03:50;13.40;;;7.30;;
8183;SDS011;4133;48.752;9.088;2023-02-08T12:07:05;10.83;;;6.50;;
8183;SDS011;4133;48.752;9.088;2023-02-08T12:12:02;11.20;;;7.00;;
8183;SDS011;4133;48.752;9.088;2023-02-08T12:17:25;8.90;;;6.47;;
8183;SDS011;4133;48.752;9.088;2023-02-08T12:22:26;11.67;;;7.07;;
8183;SDS011;4133;48.752;9.088;2023-02-08T12:30:09;10.10;;;6.47;;
8183;SDS011;4133;48.752;9.088;2023-02-08T12:38:06;11.87;;;6.50;;
8183;SDS011;4133;48.752;9.088;2023-02-08T12:40:53;10.37;;;6.27;;
8183;SDS011;4133;48.752;9.088;2023-02-08T12:53:55;9.40;;;5.33;;
8183;SDS011;4133;48.752;9.088;2023-02-08T12:56:24;9.73;;;5.43;;
8183;SDS011;4133;48.752;9.088;2023-02-08T12:58:52;9.70;;;5.53;;
8183;SDS011;4133;48.752;9.088;2023-02-08T13:01:20;6.90;;;5.13;;
8183;SDS011;4133;48.752;9.088;2023-02-08T13:03:49;9.50;;;5.53;;
8183;SDS011;4133;48.752;9.088;2023-02-08T13:06:24;6.83;;;4.83;;
8183;SDS011;4133;48.752;9.088;2023-02-08T13:11:26;11.03;;;5.37;;
8183;SDS011;4133;48.752;9.088;2023-02-08T13:13:56;6.97;;;4.90;;
8183;SDS011;4133;48.752;9.088;2023-02-08T13:16:24;8.83;;;5.50;;
8183;SDS011;4133;48.752;9.088;2023-02-08T13:18:56;10.73;;;5.43;;
8183;SDS011;4133;48.752;9.088;2023-02-08T13:21:27;6.80;;;4.87;;
8183;SDS011;4133;48.752;9.088;2023-02-08T13:23:55;8.40;;;5.33;;
8183;SDS011;4133;48.752;9.088;2023-02-08T13:26:26;8.50;;;4.80;;
8183;SDS011;4133;48.752;9.088;2023-02-08T13:28:55;7.85;;;5.95;;
8183;SDS011;4133;48.752;9.088;2023-02-08T13:31:26;8.70;;;5.50;;
8183;SDS011;4133;48.752;9.088;2023-02-08T13:33:54;7.13;;;5.10;;
8183;SDS011;4133;48.752;9.088;2023-02-08T13:38:57;8.03;;;5.43;;
8183;SDS011;4133;48.752;9.088;2023-02-08T13:41:24;7.80;;;5.03;;
8183;SDS011;4133;48.752;9.088;2023-02-08T13:43:52;7.97;;;4.97;;
8183;SDS011;4133;48.752;9.088;2023-02-08T13:46:19;8.60;;;5.37;;
8183;SDS011;4133;48.752;9.088;2023-02-08T13:48:47;11.47;;;5.50;;
8183;SDS011;4133;48.752;9.088;2023-02-08T13:51:59;9.20;;;5.03;;
8183;SDS011;4133;48.752;9.088;2023-02-08T13:56:36;6.43;;;4.90;;
8183;SDS011;4133;48.752;9.088;2023-02-08T13:59:51;10.70;;;5.40;;
8183;SDS011;4133;48.752;9.088;2023-02-08T14:04:43;9.73;;;5.17;;
8183;SDS011;4133;48.752;9.088;2023-02-08T14:09:48;8.17;;;5.70;;
8183;SDS011;4133;48.752;9.088;2023-02-08T14:14:43;8.23;;;5.00;;
8183;SDS011;4133;48.752;9.088;2023-02-08T14:17:28;8.20;;;4.57;;
8183;SDS011;4133;48.752;9.088;2023-02-08T14:20:04;8.17;;;4.90;;
8183;SDS011;4133;48.752;9.088;2023-02-08T14:22:38;7.30;;;4.33;;
8183;SDS011;4133;48.752;9.088;2023-02-08T14:25:05;9.40;;;5.30;;
8183;SDS011;4133;48.752;9.088;2023-02-08T14:27:41;9.40;;;4.70;;
8183;SDS011;4133;48.752;9.088;2023-02-08T14:32:42;8.00;;;4.83;;
8183;SDS011;4133;48.752;9.088;2023-02-08T14:37:35;8.13;;;5.00;;
8183;SDS011;4133;48.752;9.088;2023-02-08T14:45:28;7.60;;;6.17;;
8183;SDS011;4133;48.752;9.088;2023-02-08T14:53:41;8.07;;;6.10;;
8183;SDS011;4133;48.752;9.088;2023-02-08T14:58:35;8.33;;;6.53;;
8183;SDS011;4133;48.752;9.088;2023-02-08T15:01:05;9.20;;;5.93;;
8183;SDS011;4133;48.752;9.088;2023-02-08T15:03:32;8.33;;;6.00;;
8183;SDS011;4133;48.752;9.088;2023-02-08T15:06:16;10.40;;;6.43;;
8183;SDS011;4133;48.752;9.088;2023-02-08T15:08:50;8.87;;;6.10;;
8183;SDS011;4133;48.752;9.088;2023-02-08T15:11:26;9.63;;;6.23;;
8183;SDS011;4133;48.752;9.088;2023-02-08T15:13:53;10.73;;;6.87;;
8183;SDS011;4133;48.752;9.088;2023-02-08T15:16:19;11.27;;;6.40;;
8183;SDS011;4133;48.752;9.088;2023-02-08T15:18:46;10.97;;;6.23;;
8183;SDS011;4133;48.752;9.088;2023-02-08T15:21:17;11.73;;;6.37;;
8183;SDS011;4133;48.752;9.088;2023-02-08T15:23:59;9.03;;;6.10;;
8183;SDS011;4133;48.752;9.088;2023-02-08T15:26:25;9.93;;;6.63;;
8183;SDS011;4133;48.752;9.088;2023-02-08T15:28:52;12.33;;;7.10;;
8183;SDS011;4133;48.752;9.088;2023-02-08T15:31:19;11.07;;;6.90;;
8183;SDS011;4133;48.752;9.088;2023-02-08T15:33:50;10.93;;;7.13;;
8183;SDS011;4133;48.752;9.088;2023-02-08T15:36:20;10.57;;;7.17;;
8183;SDS011;4133;48.752;9.088;2023-02-08T15:38:47;10.07;;;6.83;;
8183;SDS011;4133;48.752;9.088;2023-02-08T15:41:14;9.93;;;6.53;;
8183;SDS011;4133;48.752;9.088;2023-02-08T15:43:41;9.57;;;6.43;;
8183;SDS011;4133;48.752;9.088;2023-02-08T15:46:20;10.70;;;7.30;;
8183;SDS011;4133;48.752;9.088;2023-02-08T15:48:47;13.80;;;7.93;;
8183;SDS011;4133;48.752;9.088;2023-02-08T15:51:13;14.50;;;7.63;;
8183;SDS011;4133;48.752;9.088;2023-02-08T15:53:42;12.67;;;7.57;;
8183;SDS011;4133;48.752;9.088;2023-02-08T15:56:08;11.47;;;7.17;;
8183;SDS011;4133;48.752;9.088;2023-02-08T15:58:37;12.03;;;7.17;;
8183;SDS011;4133;48.752;9.088;2023-02-08T16:01:04;13.27;;;7.70;;
8183;SDS011;4133;48.752;9.088;2023-02-08T16:03:31;9.87;;;7.43;;
8183;SDS011;4133;48.752;9.088;2023-02-08T16:06:02;11.00;;;7.80;;
8183;SDS011;4133;48.752;9.088;2023-02-08T16:08:30;15.23;;;7.83;;
8183;SDS011;4133;48.752;9.088;2023-02-08T16:10:58;11.97;;;7.23;;
8183;SDS011;4133;48.752;9.088;2023-02-08T16:13:26;12.83;;;7.50;;
8183;SDS011;4133;48.752;9.088;2023-02-08T16:15:54;10.73;;;7.13;;
8183;SDS011;4133;48.752;9.088;2023-02-08T16:19:21;11.60;;;7.93;;
8183;SDS011;4133;48.752;9.088;2023-02-08T16:21:21;10.67;;;7.30;;
8183;SDS011;4133;48.752;9.088;2023-02-08T16:23:55;13.83;;;7.37;;
8183;SDS011;4133;48.752;9.088;2023-02-08T16:26:25;11.07;;;7.50;;
8183;SDS011;4133;48.752;9.088;2023-02-08T16:28:56;12.83;;;7.50;;
8183;SDS011;4133;48.752;9.088;2023-02-08T16:31:24;13.00;;;7.77;;
8183;SDS011;4133;48.752;9.088;2023-02-08T16:33:59;12.07;;;7.60;;
8183;SDS011;4133;48.752;9.088;2023-02-08T16:36:27;12.27;;;7.37;;
8183;SDS011;4133;48.752;9.088;2023-02-08T16:44:30;13.40;;;8.20;;
8183;SDS011;4133;48.752;9.088;2023-02-08T16:46:58;13.40;;;7.57;;
8183;SDS011;4133;48.752;9.088;2023-02-08T16:49:24;10.97;;;6.97;;
8183;SDS011;4133;48.752;9.088;2023-02-08T16:51:59;11.80;;;7.47;;
8183;SDS011;4133;48.752;9.088;2023-02-08T16:54:25;12.50;;;7.60;;
8183;SDS011;4133;48.752;9.088;2023-02-08T16:56:52;13.30;;;7.87;;
8183;SDS011;4133;48.752;9.088;2023-02-08T16:59:24;12.37;;;8.00;;
8183;SDS011;4133;48.752;9.088;2023-02-08T17:01:50;12.23;;;7.40;;
8183;SDS011;4133;48.752;9.088;2023-02-08T17:04:16;15.57;;;8.20;;
8183;SDS011;4133;48.752;9.088;2023-02-08T17:06:42;14.53;;;8.53;;
8183;SDS011;4133;48.752;9.088;2023-02-08T17:09:11;14.32;;;8.55;;
8183;SDS011;4133;48.752;9.088;2023-02-08T17:11:38;14.17;;;8.40;;
8183;SDS011;4133;48.752;9.088;2023-02-08T17:14:04;14.47;;;8.33;;
8183;SDS011;4133;48.752;9.088;2023-02-08T17:16:31;14.07;;;8.30;;
8183;SDS011;4133;48.752;9.088;2023-02-08T17:18:58;12.40;;;7.77;;
8183;SDS011;4133;48.752;9.088;2023-02-08T17:21:24;13.53;;;8.87;;
8183;SDS011;4133;48.752;9.088;2023-02-08T17:23:52;13.00;;;8.67;;
8183;SDS011;4133;48.752;9.088;2023-02-08T17:26:19;11.97;;;7.90;;
8183;SDS011;4133;48.752;9.088;2023-02-08T17:28:46;13.67;;;8.10;;
8183;SDS011;4133;48.752;9.088;2023-02-08T17:31:14;16.70;;;8.43;;
8183;SDS011;4133;48.752;9.088;2023-02-08T17:33:40;16.27;;;8.83;;
8183;SDS011;4133;48.752;9.088;2023-02-08T17:36:06;15.03;;;8.43;;
8183;SDS011;4133;48.752;9.088;2023-02-08T17:38:33;16.13;;;8.23;;
8183;SDS011;4133;48.752;9.088;2023-02-08T17:41:02;12.87;;;8.33;;
8183;SDS011;4133;48.752;9.088;2023-02-08T17:43:29;16.83;;;8.70;;
8183;SDS011;4133;48.752;9.088;2023-02-08T17:45:55;14.10;;;8.90;;
8183;SDS011;4133;48.752;9.088;2023-02-08T17:51:25;11.40;;;7.97;;
8183;SDS011;4133;48.752;9.088;2023-02-08T17:53:51;13.70;;;8.50;;
8183;SDS011;4133;48.752;9.088;2023-02-08T17:56:18;15.37;;;8.73;;
8183;SDS011;4133;48.752;9.088;2023-02-08T17:58:45;16.87;;;9.10;;
8183;SDS011;4133;48.752;9.088;2023-02-08T18:01:16;16.07;;;9.37;;